Terminal Aerodrome Forecast
Issued by NWS

Home | Current Version | Previous Version | Text Only | Print | Product List | Glossary On
Versions: 1 2 3 4 5 6 7 8 9 10 11 12 13 14 15 16 17
000
FTUS46 KSEW 171700
TAFHQM
TAF
KHQM 171728Z 1718/1818 05004KT P6SM -SHRA SCT050 BKN100 OVC250
      TEMPO 1718/1721 6SM -SHRA BR SCT040
     FM172100 20007KT P6SM -SHRA BKN050 OVC100
     FM180600 19005KT P6SM -SHRA BKN030 OVC080
     FM181200 19005KT 4SM BR SCT012 OVC030=

USA.gov is the U.S. government's official web portal to all federal, state and local government web resources and services.